Flight Track Log - Related Links

Times and Time Zones

All times are in EDT time to prevent confusion due to time zone crossing. See the SKW6306 flight status page for this flight to view local times or setup timezone preferences in your user account.

Time Position Orientation Groundspeed Altitude Reporting Facility
EDT Latitude Longitude Course Direction KTS MPH feet Rate Location/Type
Mon 04:54:28 PM 52.1667 -106.8167 198° South 170 196 3,600  Level Winnipeg Center
Mon 04:55:28 PM 52.1167 -106.8833 219° Southwest 220 253 6,200 2,450 Climbing Winnipeg Center
Mon 04:56:28 PM 52.0667 -106.9000 192° South 250 288 8,500 2,300 Climbing Winnipeg Center
Mon 04:57:28 PM 51.9833 -106.9333 194° South 280 322 10,800 2,200 Climbing Winnipeg Center
Mon 04:58:28 PM 51.9167 -106.9667 197° South 290 334 12,900 2,200 Climbing Winnipeg Center
Mon 04:59:00 PM 51.5790 -107.0113 198° South  Level FlightAware Approximate
Mon 04:59:28 PM 51.8333 -107.0167 200° South 310 357 15,200  Level Winnipeg Center
Mon 05:00:28 PM 51.7333 -107.0667 197° South 320 368 17,100 1,750 Climbing Winnipeg Center
Mon 05:01:28 PM 51.6500 -107.1000 194° South 320 368 18,700 1,600 Climbing Winnipeg Center
Mon 05:02:28 PM 51.5667 -107.1333 194° South 330 380 20,300 1,550 Climbing Winnipeg Center
Mon 05:03:28 PM 51.4667 -107.1667 192° South 340 391 21,800 1,400 Climbing Winnipeg Center
Mon 05:04:28 PM 51.3833 -107.2333 207° Southwest 340 391 23,100 1,250 Climbing Winnipeg Center
Mon 05:05:28 PM 51.2833 -107.2667 192° South 350 403 24,300 1,100 Climbing Winnipeg Center
Mon 05:06:28 PM 51.2000 -107.3167 201° Southwest 360 414 25,300 950 Climbing Winnipeg Center
Mon 05:07:28 PM 51.1000 -107.3667 197° South 370 426 26,200 1,000 Climbing Winnipeg Center
Mon 05:08:28 PM 51.0000 -107.4167 197° South 370 426 27,300 1,050 Climbing Winnipeg Center
Mon 05:09:28 PM 50.9000 -107.4500 192° South 370 426 28,300 1,000 Climbing Winnipeg Center
Mon 05:10:28 PM 50.7833 -107.5000 195° South 370 426 29,300 800 Climbing Winnipeg Center
Mon 05:11:28 PM 50.7000 -107.5333 194° South 380 437 29,900 550 Climbing Winnipeg Center
Mon 05:12:28 PM 50.5833 -107.5833 195° South 380 437 30,400 400 Climbing Winnipeg Center
Mon 05:13:28 PM 50.4833 -107.6500 203° Southwest 400 460 30,700 300 Climbing Winnipeg Center
Mon 05:14:28 PM 50.3667 -107.6667 185° South 410 472 31,000 450 Climbing Winnipeg Center
Mon 05:15:28 PM 50.2667 -107.7167 198° South 420 483 31,600 550 Climbing Winnipeg Center
Mon 05:16:28 PM 50.1500 -107.7167 180° South 430 495 32,100 500 Climbing Winnipeg Center
Mon 05:17:28 PM 50.0167 -107.7500 189° South 430 495 32,600 450 Climbing Winnipeg Center
Mon 05:18:28 PM 49.8833 -107.7667 185° South 430 495 33,000 200 Climbing Winnipeg Center
Mon 05:19:28 PM 49.7667 -107.7667 180° South 440 506 33,000  Level Winnipeg Center
Mon 05:20:28 PM 49.6500 -107.7833 185° South 450 518 33,000  Level Winnipeg Center
Mon 05:21:28 PM 49.5333 -107.8167 191° South 450 518 33,000  Level Winnipeg Center
Mon 05:22:28 PM 49.4167 -107.8167 180° South 450 518 33,000  Level Winnipeg Center
Mon 05:23:28 PM 49.2833 -107.8167 180° South 450 518 33,000  Level Winnipeg Center
Mon 05:24:28 PM 49.1667 -107.7833 169° South 440 506 33,000  Level Winnipeg Center
Mon 05:25:28 PM 49.0333 -107.7500 171° South 440 506 33,000  Level Winnipeg Center
Mon 05:26:28 PM 48.9167 -107.7333 175° South 450 518 33,000  Level Winnipeg Center
Mon 05:27:28 PM 48.8336 -107.6800 157° South 439 505 33,000  Level Salt Lake Center
Mon 05:28:30 PM 48.6875 -107.6486 172° South 443 510 33,000  Level Salt Lake Center
Mon 05:29:32 PM 48.5664 -107.6208 171° South 444 511 33,000  Level Salt Lake Center
Mon 05:30:34 PM 48.4350 -107.5911 171° South 449 517 33,000  Level Salt Lake Center
Mon 05:31:36 PM 48.3111 -107.5658 172° South 450 518 33,000  Level Salt Lake Center
Mon 05:32:38 PM 48.1858 -107.5378 172° South 453 521 33,000  Level Salt Lake Center
Mon 05:33:40 PM 48.0647 -107.5125 172° South 446 513 33,000  Level Salt Lake Center
Mon 05:34:42 PM 47.9383 -107.4850 172° South 456 525 33,000  Level Salt Lake Center
Mon 05:35:44 PM 47.7883 -107.4519 172° South 455 524 33,000  Level Salt Lake Center
Mon 05:36:46 PM 47.6719 -107.4267 172° South 455 524 33,000  Level Salt Lake Center
Mon 05:37:48 PM 47.5467 -107.4019 172° South 456 525 33,000  Level Salt Lake Center
Mon 05:38:50 PM 47.4086 -107.3711 171° South 454 522 33,000  Level Salt Lake Center
Mon 05:39:52 PM 47.2883 -107.3458 172° South 455 524 33,000  Level Salt Lake Center
Mon 05:40:54 PM 47.1497 -107.3153 171° South 453 521 33,000  Level Salt Lake Center
Mon 05:41:56 PM 47.0303 -107.2903 172° South 452 520 33,000  Level Salt Lake Center
Mon 05:42:58 PM 46.8900 -107.2628 172° South 453 521 33,000  Level Salt Lake Center
Mon 05:44:00 PM 46.7708 -107.2389 172° South 452 520 33,000  Level Salt Lake Center
Mon 05:45:02 PM 46.6303 -107.2067 171° South 456 525 33,000  Level Salt Lake Center
Mon 05:46:04 PM 46.5106 -107.1847 173° South 455 524 33,000  Level Salt Lake Center
Mon 05:47:06 PM 46.3706 -107.1575 172° South 454 522 33,000  Level Salt Lake Center
Mon 05:48:08 PM 46.2503 -107.1328 172° South 455 524 33,000  Level Salt Lake Center
Mon 05:49:10 PM 46.1111 -107.1050 172° South 453 521 33,000  Level Salt Lake Center
Mon 05:50:12 PM 45.9903 -107.0806 172° South 456 525 33,000  Level Salt Lake Center
Mon 05:51:14 PM 45.8703 -107.0561 172° South 455 524 33,000  Level Salt Lake Center
Mon 05:52:15 PM 45.7311 -107.0250 171° South 454 522 33,000  Level Salt Lake Center
Mon 05:53:17 PM 45.6108 -107.0025 173° South 453 521 33,000  Level Salt Lake Center
Mon 05:54:19 PM 45.4714 -106.9747 172° South 453 521 33,000  Level Salt Lake Center
Mon 05:55:21 PM 45.3556 -106.9544 173° South 443 510 33,000  Level Salt Lake Center
Mon 05:56:23 PM 45.2164 -106.9264 172° South 447 514 33,000  Level Salt Lake Center
Mon 05:57:25 PM 45.0986 -106.9039 172° South 445 512 33,000  Level Salt Lake Center
Mon 05:58:27 PM 44.9819 -106.8817 172° South 442 509 33,000  Level Salt Lake Center
Mon 05:59:29 PM 44.8469 -106.8553 172° South 438 504 33,000  Level Salt Lake Center
Mon 06:00:30 PM 44.7317 -106.8339 172° South 435 501 33,000  Level Salt Lake Center
Mon 06:01:32 PM 44.5972 -106.8092 173° South 435 501 33,000  Level Salt Lake Center
Mon 06:02:34 PM 44.4819 -106.7878 172° South 434 499 33,000  Level Salt Lake Center
Mon 06:03:33 PM 44.3667 -106.7661 172° South 436 502 33,000  Level Denver Center
Mon 06:04:35 PM 44.2319 -106.7411 172° South 437 503 33,000  Level Denver Center
Mon 06:05:37 PM 44.1058 -106.7186 173° South 436 502 33,000  Level Denver Center
Mon 06:06:39 PM 43.9906 -106.6964 172° South 437 503 33,000  Level Denver Center
Mon 06:07:41 PM 43.8522 -106.6700 172° South 448 516 33,000  Level Denver Center
Mon 06:08:43 PM 43.7336 -106.6483 172° South 450 518 33,000  Level Denver Center
Mon 06:09:45 PM 43.6122 -106.6278 173° South 458 527 33,000  Level Denver Center
Mon 06:10:47 PM 43.4689 -106.6181 177° South 463 533 33,000  Level Denver Center
Mon 06:11:49 PM 43.3489 -106.6058 176° South 455 524 33,000  Level Denver Center
Mon 06:12:51 PM 43.2119 -106.6094 181° South 444 511 33,000  Level Denver Center
Mon 06:13:53 PM 43.0931 -106.6164 182° South 446 513 33,000  Level Denver Center
Mon 06:14:55 PM 42.9578 -106.6244 182° South 439 505 33,000  Level Denver Center
Mon 06:15:57 PM 42.8436 -106.6125 176° South 435 501 33,000  Level Denver Center
Mon 06:16:59 PM 42.7086 -106.5781 169° South 440 506 33,000  Level Denver Center
Mon 06:18:01 PM 42.5939 -106.5461 168° South 440 506 33,000  Level Denver Center
Mon 06:19:03 PM 42.4606 -106.5100 169° South 440 506 33,000  Level Denver Center
Mon 06:20:05 PM 42.3464 -106.4800 169° South 439 505 33,000  Level Denver Center
Mon 06:21:07 PM 42.2133 -106.4450 169° South 438 504 33,000  Level Denver Center
Mon 06:22:09 PM 42.0992 -106.4117 168° South 439 505 33,000  Level Denver Center
Mon 06:23:11 PM 41.9675 -106.3711 167° South 436 502 33,000  Level Denver Center
Mon 06:24:13 PM 41.8544 -106.3311 165° South 439 505 33,000  Level Denver Center
Mon 06:25:15 PM 41.7375 -106.2364 149° Southeast 439 505 33,000  Level Denver Center
Mon 06:26:17 PM 41.6375 -106.1550 149° Southeast 441 507 33,000  Level Denver Center
Mon 06:27:19 PM 41.5214 -106.0608 149° Southeast 439 505 33,000  Level Denver Center
Mon 06:28:21 PM 41.4222 -105.9806 149° Southeast 438 504 33,000  Level Denver Center
Mon 06:29:23 PM 41.3047 -105.8872 149° Southeast 440 506 33,000 -97 Level Denver Center
Mon 06:30:25 PM 41.2050 -105.8047 148° Southeast 441 507 32,800 -774 Descending Denver Center
Mon 06:31:27 PM 41.0844 -105.7247 153° Southeast 436 502 31,400 -1,645 Descending Denver Center
Mon 06:32:29 PM 40.9681 -105.6739 162° South 439 505 29,400 -2,274 Descending Denver Center
Mon 06:33:31 PM 40.8483 -105.6236 162° South 450 518 26,700 -2,613 Descending Denver Center
Mon 06:34:33 PM 40.7256 -105.5736 163° South 461 531 24,000 -2,565 Descending Denver Center
Mon 06:35:35 PM 40.6128 -105.5019 154° Southeast 458 527 21,400 -2,419 Descending Denver Center
Mon 06:36:37 PM 40.5611 -105.3619 116° Southeast 435 501 19,000 -1,645 Descending Denver Center
Mon 06:37:39 PM 40.4914 -105.2269 124° Southeast 370 426 18,000 -968 Descending Denver Center
Mon 06:38:41 PM 40.4603 -105.1181 111° Southeast 323 372 17,000 -1,113 Descending Denver Center
Mon 06:39:43 PM 40.4297 -105.0172 112° Southeast 301 346 15,700 -1,161 Descending Denver Center
Mon 06:40:45 PM 40.3992 -104.9139 111° Southeast 284 327 14,600 -968 Descending Denver Center
Mon 06:41:47 PM 40.3467 -104.8389 133° Southeast 278 320 13,700 -968 Descending Denver Center
Mon 06:42:49 PM 40.2861 -104.7656 137° Southeast 278 320 12,600 -1,161 Descending Denver Center
Mon 06:43:51 PM 40.2225 -104.7178 150° Southeast 267 307 11,300 -1,415 Descending Denver Center
Mon 06:44:52 PM 40.1553 -104.6931 164° South 256 295 9,700 -1,415 Descending Denver Center
Mon 06:45:54 PM 40.0811 -104.6942 181° South 247 284 8,400 -1,161 Descending Denver Center
Mon 06:46:56 PM 40.0167 -104.6947 180° South 233 268 7,300 -1,065 Descending Denver Center

Login

Don't have an account? Register now (free) for customized features, flight alerts, and more!